Terminal Aerodrome Forecast
Issued by NWS Twin Cities, MN

Home | Current Version | Previous Version | Text Only | Print | Product List | Glossary On
Versions: 1 2 3 4 5 6 7 8 9 10 11 12 13 14 15 16 17 18 19 20 21
000
FTUS43 KMPX 121100
TAFSTC
TAF
KSTC 121139Z 1212/1312 00000KT 5SM BR BKN100
     FM121245 33005KT P6SM BKN100
     FM122000 29009KT P6SM BKN100
     FM130100 28005KT P6SM SCT100=

USA.gov is the U.S. government's official web portal to all federal, state and local government web resources and services.